Bibliothèque

Musique » WhoMadeWho »

Greyhound

29 écoutes | Se rendre sur la page du titre

Du Mercredi 25 janvier 2012 au Mercredi 25 avril 2012 Tout le temps

Titres (29)
Titre Album Durée Date
Greyhound 3:58 19 avr. 2012, 7h18m
Greyhound 3:58 13 avr. 2012, 6h55m
Greyhound 3:58 30 mars 2012, 15h14m
Greyhound 3:58 25 mars 2012, 16h55m
Greyhound 3:58 24 mars 2012, 21h02m
Greyhound 3:58 8 mars 2012, 6h58m
Greyhound 3:58 7 mars 2012, 21h00m
Greyhound 3:58 1 mars 2012, 9h25m
Greyhound 3:58 23 fév. 2012, 8h43m
Greyhound 3:58 8 fév. 2012, 8h13m
Greyhound 3:58 7 fév. 2012, 18h23m
Greyhound 3:58 7 fév. 2012, 18h23m
Greyhound 3:58 7 fév. 2012, 18h23m
Greyhound 3:58 4 fév. 2012, 11h57m
Greyhound 3:58 4 fév. 2012, 11h26m
Greyhound 3:58 2 fév. 2012, 8h00m
Greyhound 3:58 31 jan. 2012, 23h40m
Greyhound 3:58 31 jan. 2012, 23h04m
Greyhound 3:58 30 jan. 2012, 23h26m
Greyhound 3:58 30 jan. 2012, 23h01m
Greyhound 3:58 30 jan. 2012, 22h52m
Greyhound 3:58 30 jan. 2012, 22h27m
Greyhound 3:58 30 jan. 2012, 21h58m
Greyhound 3:58 30 jan. 2012, 21h28m
Greyhound 3:58 30 jan. 2012, 21h11m
Greyhound 3:58 30 jan. 2012, 21h05m
Greyhound 3:58 30 jan. 2012, 21h01m
Greyhound 3:58 30 jan. 2012, 19h15m
Greyhound 3:58 30 jan. 2012, 18h27m